Time;durP1;ratioP1;P1;durP2;ratioP2;P2;SDS_P1;SDS_P2;PMS_P1;PMS_P2;Temp;Humidity;BMP_temperature;BMP_pressure;BME280_temperature;BME280_humidity;BME280_pressure;Samples;Min_cycle;Max_cycle;Signal;HPM_P1;HPM_P2
2022/05/29 00:02:49;;;;;;;8.90;4.80;;;10.20;99.90;;;;;;4955179;28;20594;-68
2022/05/29 00:05:49;;;;;;;8.90;4.70;;;10.20;99.90;;;;;;4956061;28;20486;-67
2022/05/29 00:08:48;;;;;;;8.07;4.83;;;10.30;99.90;;;;;;4954290;28;20568;-67
2022/05/29 00:11:47;;;;;;;6.90;4.70;;;10.20;99.90;;;;;;4946976;28;20545;-67
2022/05/29 00:14:50;;;;;;;9.90;5.37;;;10.30;99.90;;;;;;4957595;28;20458;-68
2022/05/29 00:17:42;;;;;;;8.77;4.70;;;10.20;99.90;;;;;;4956727;28;21379;-67
2022/05/29 00:20:36;;;;;;;8.63;4.70;;;10.20;99.90;;;;;;4957771;28;20466;-68
2022/05/29 00:23:49;;;;;;;9.90;5.10;;;10.30;99.90;;;;;;4953372;28;20479;-68
2022/05/29 00:26:59;;;;;;;10.67;5.37;;;10.30;99.90;;;;;;4953019;28;20559;-68
2022/05/29 00:29:52;;;;;;;9.40;5.57;;;10.20;99.90;;;;;;4956102;28;20462;-69
2022/05/29 00:32:40;;;;;;;12.10;5.00;;;10.20;99.90;;;;;;4953864;28;20570;-68
2022/05/29 00:35:47;;;;;;;8.60;5.00;;;10.20;99.90;;;;;;4955429;28;20458;-68
2022/05/29 00:38:52;;;;;;;9.43;5.53;;;10.10;99.90;;;;;;4958059;28;20467;-68
2022/05/29 00:41:54;;;;;;;10.10;5.07;;;10.10;99.90;;;;;;4951386;28;20881;-68
2022/05/29 00:44:50;;;;;;;11.10;5.30;;;10.20;99.90;;;;;;4957335;28;20478;-68
2022/05/29 00:47:52;;;;;;;10.50;5.37;;;10.20;99.90;;;;;;4956878;28;20510;-68
2022/05/29 00:50:44;;;;;;;10.90;5.63;;;10.20;99.90;;;;;;4957401;28;20498;-68
2022/05/29 00:53:51;;;;;;;9.43;5.23;;;10.10;99.90;;;;;;4953726;28;20560;-68
2022/05/29 00:56:42;;;;;;;9.57;6.10;;;10.10;99.90;;;;;;4955684;28;20481;-68
2022/05/29 00:59:45;;;;;;;10.70;5.50;;;10.10;99.90;;;;;;4956999;28;20446;-68
2022/05/29 01:02:42;;;;;;;9.80;5.47;;;10.10;99.90;;;;;;4954876;28;20965;-68
2022/05/29 01:05:43;;;;;;;10.37;5.57;;;10.10;99.90;;;;;;4898637;29;20476;-68
2022/05/29 01:08:36;;;;;;;13.33;5.10;;;10.20;99.90;;;;;;4900024;29;21005;-68
2022/05/29 01:11:58;;;;;;;12.33;5.60;;;10.20;99.90;;;;;;4899294;29;20465;-68
2022/05/29 01:14:58;;;;;;;9.10;5.33;;;10.20;99.90;;;;;;4901517;29;20496;-70
2022/05/29 01:21:57;;;;;;;7.77;4.80;;;10.10;99.90;;;;;;4901951;29;20588;-68
2022/05/29 01:25:22;;;;;;;9.90;4.90;;;10.20;99.90;;;;;;4959507;28;20593;-68
2022/05/29 01:28:39;;;;;;;8.80;4.40;;;10.20;99.90;;;;;;4961207;28;20451;-68
2022/05/29 01:31:47;;;;;;;13.87;5.10;;;10.20;99.90;;;;;;4959582;28;20459;-72
2022/05/29 01:34:46;;;;;;;9.20;5.50;;;10.20;99.90;;;;;;4959062;28;20857;-68
2022/05/29 01:37:51;;;;;;;10.30;5.77;;;10.20;99.90;;;;;;4960622;28;20473;-68
2022/05/29 01:40:47;;;;;;;12.63;5.27;;;10.20;99.90;;;;;;4956768;28;20465;-68
2022/05/29 01:43:52;;;;;;;8.83;5.20;;;10.20;99.90;;;;;;4953015;28;20490;-67
2022/05/29 01:47:05;;;;;;;10.53;4.80;;;10.20;99.90;;;;;;4953113;28;20486;-68
2022/05/29 01:50:25;;;;;;;12.73;6.10;;;10.10;99.90;;;;;;4958258;28;20514;-67
2022/05/29 01:53:27;;;;;;;11.97;5.17;;;10.20;99.90;;;;;;4952284;28;20590;-68
2022/05/29 01:56:22;;;;;;;10.23;5.07;;;10.20;99.90;;;;;;4955226;28;20561;-68
2022/05/29 01:59:19;;;;;;;8.80;4.60;;;10.20;99.90;;;;;;4957410;28;21000;-68
2022/05/29 02:02:14;;;;;;;9.10;4.70;;;10.10;99.90;;;;;;4947833;28;20636;-68
2022/05/29 02:05:12;;;;;;;13.10;5.60;;;10.20;99.90;;;;;;4952059;28;20458;-67
2022/05/29 02:08:15;;;;;;;8.90;4.30;;;10.20;99.90;;;;;;4955921;28;20492;-67
2022/05/29 02:11:07;;;;;;;12.20;5.30;;;10.10;99.90;;;;;;4957745;28;20474;-67
2022/05/29 02:14:19;;;;;;;11.20;5.30;;;10.10;99.90;;;;;;4954560;28;20581;-68
2022/05/29 02:17:28;;;;;;;10.60;4.73;;;10.10;99.90;;;;;;4958284;28;20965;-68
2022/05/29 02:20:25;;;;;;;9.20;5.00;;;10.10;99.90;;;;;;4952525;28;20932;-68
2022/05/29 02:23:25;;;;;;;12.80;4.93;;;10.10;99.90;;;;;;4957228;28;20855;-67
2022/05/29 02:26:31;;;;;;;9.67;4.60;;;10.10;99.90;;;;;;4952728;28;20629;-67
2022/05/29 02:29:27;;;;;;;12.70;4.13;;;10.10;99.90;;;;;;4955395;28;20455;-67
2022/05/29 02:32:26;;;;;;;7.93;4.70;;;10.10;99.90;;;;;;4953195;28;20523;-67
2022/05/29 02:35:29;;;;;;;11.23;4.43;;;10.10;99.90;;;;;;4954908;28;20454;-68
2022/05/29 02:38:33;;;;;;;8.03;4.37;;;10.10;99.90;;;;;;4958522;28;21108;-67
2022/05/29 02:41:31;;;;;;;10.30;4.77;;;10.10;99.90;;;;;;4959906;28;20997;-67
2022/05/29 02:44:37;;;;;;;9.47;4.20;;;10.10;99.90;;;;;;4956632;28;20493;-68
2022/05/29 02:47:40;;;;;;;9.90;4.63;;;10.10;99.90;;;;;;4958815;28;20564;-67
2022/05/29 02:50:41;;;;;;;9.90;4.20;;;10.10;99.90;;;;;;4953943;28;20559;-68
2022/05/29 02:53:34;;;;;;;7.50;4.50;;;10.10;99.90;;;;;;4961643;28;20886;-68
2022/05/29 02:56:30;;;;;;;13.50;4.90;;;10.20;99.90;;;;;;4958836;28;20470;-67
2022/05/29 02:59:39;;;;;;;8.17;4.23;;;10.20;99.90;;;;;;4960290;28;20571;-67
2022/05/29 03:02:42;;;;;;;7.40;4.47;;;10.10;99.90;;;;;;4957956;28;20475;-67
2022/05/29 03:05:40;;;;;;;10.67;4.63;;;10.20;99.90;;;;;;4959611;28;20459;-67
2022/05/29 03:08:51;;;;;;;9.30;4.73;;;10.20;99.90;;;;;;4961145;28;20551;-67
2022/05/29 03:11:59;;;;;;;8.30;4.47;;;10.20;99.90;;;;;;4957773;28;20474;-68
2022/05/29 03:15:08;;;;;;;7.63;4.13;;;10.20;99.90;;;;;;4958133;28;20459;-68
2022/05/29 03:18:25;;;;;;;10.53;4.53;;;10.20;99.90;;;;;;4960828;28;21057;-67
2022/05/29 03:21:27;;;;;;;7.83;4.47;;;10.20;99.90;;;;;;4956209;28;20459;-67
2022/05/29 03:24:30;;;;;;;10.67;4.80;;;10.20;99.90;;;;;;4958697;28;20485;-67
2022/05/29 03:27:39;;;;;;;11.00;4.27;;;10.20;99.90;;;;;;4958636;28;20493;-67
2022/05/29 03:30:39;;;;;;;10.07;4.57;;;10.20;99.90;;;;;;4949762;28;20916;-67
2022/05/29 03:33:37;;;;;;;7.53;4.60;;;10.20;99.90;;;;;;4959652;28;20529;-67
2022/05/29 03:36:32;;;;;;;7.93;4.90;;;10.30;99.90;;;;;;4953849;28;20835;-68
2022/05/29 03:39:25;;;;;;;9.30;4.90;;;10.20;99.90;;;;;;4957493;28;20526;-71
2022/05/29 03:42:20;;;;;;;9.00;5.53;;;10.20;99.90;;;;;;4952816;28;20487;-67
2022/05/29 03:45:12;;;;;;;9.30;5.00;;;10.20;99.90;;;;;;4953776;28;20467;-67
2022/05/29 03:48:02;;;;;;;8.90;4.70;;;10.20;99.90;;;;;;4958133;28;20508;-67
2022/05/29 03:51:08;;;;;;;11.87;4.80;;;10.30;99.90;;;;;;4955909;28;20544;-67
2022/05/29 03:54:15;;;;;;;10.10;4.97;;;10.30;99.90;;;;;;4956715;28;20543;-67
2022/05/29 03:57:07;;;;;;;10.60;4.83;;;10.30;99.90;;;;;;4957341;28;20479;-68
2022/05/29 04:00:02;;;;;;;11.33;4.73;;;10.20;99.90;;;;;;4959210;28;20600;-67
2022/05/29 04:02:57;;;;;;;9.63;4.03;;;10.20;99.90;;;;;;4958525;28;20601;-67
2022/05/29 04:05:47;;;;;;;8.50;4.67;;;10.30;99.90;;;;;;4959113;28;20829;-68
2022/05/29 04:15:18;;;;;;;9.37;4.47;;;10.20;99.90;;;;;;4905483;29;20472;-67
2022/05/29 04:18:11;;;;;;;13.67;5.07;;;10.30;99.90;;;;;;4914921;29;20497;-67
2022/05/29 04:21:05;;;;;;;9.27;4.53;;;10.30;99.90;;;;;;4900638;29;20450;-67
2022/05/29 04:24:09;;;;;;;14.20;5.27;;;10.30;99.90;;;;;;4900767;29;20485;-67
2022/05/29 04:26:57;;;;;;;8.07;4.27;;;10.30;99.90;;;;;;4899748;29;20485;-68
2022/05/29 04:29:45;;;;;;;14.30;5.20;;;10.30;99.90;;;;;;4903377;29;20575;-68
2022/05/29 04:35:42;;;;;;;11.23;4.83;;;10.30;99.90;;;;;;4902771;29;20566;-67
2022/05/29 04:38:30;;;;;;;10.13;4.80;;;10.30;99.90;;;;;;4906062;29;20453;-68
2022/05/29 04:41:25;;;;;;;8.07;4.50;;;10.30;99.90;;;;;;4908518;29;20548;-67
2022/05/29 04:44:13;;;;;;;8.90;4.40;;;10.40;99.90;;;;;;4901903;29;20568;-68
2022/05/29 04:47:02;;;;;;;12.17;4.90;;;10.50;99.90;;;;;;4950505;28;20927;-67
2022/05/29 04:49:50;;;;;;;6.47;4.27;;;10.40;99.90;;;;;;4960619;28;20462;-67
2022/05/29 04:52:39;;;;;;;8.30;4.23;;;10.50;99.90;;;;;;4958711;28;20507;-67
2022/05/29 04:55:27;;;;;;;12.57;4.70;;;10.40;99.90;;;;;;4959678;28;20481;-67
2022/05/29 04:58:17;;;;;;;11.80;4.60;;;10.40;99.90;;;;;;4964419;28;20511;-67
2022/05/29 05:01:05;;;;;;;13.90;4.70;;;10.40;99.90;;;;;;4957106;28;20489;-68
2022/05/29 05:03:54;;;;;;;11.00;4.50;;;10.40;99.90;;;;;;4955381;28;20556;-68
2022/05/29 05:06:42;;;;;;;12.60;4.67;;;10.40;99.90;;;;;;4959354;28;20865;-68
2022/05/29 05:09:31;;;;;;;12.67;5.00;;;10.50;99.90;;;;;;4945570;28;20518;-69
2022/05/29 05:12:19;;;;;;;9.43;4.40;;;10.50;99.90;;;;;;4956128;28;20570;-68
2022/05/29 05:15:11;;;;;;;12.07;5.33;;;10.50;99.90;;;;;;4950129;28;20447;-67
2022/05/29 05:17:59;;;;;;;13.30;4.93;;;10.50;99.90;;;;;;4957653;28;20522;-67
2022/05/29 05:20:47;;;;;;;12.43;5.50;;;10.50;99.90;;;;;;4946091;28;20487;-68
2022/05/29 05:23:36;;;;;;;12.83;5.50;;;10.50;99.90;;;;;;4943802;28;20904;-68
2022/05/29 05:26:24;;;;;;;8.20;4.90;;;10.50;99.90;;;;;;4945767;28;20978;-70
2022/05/29 05:29:14;;;;;;;11.73;4.93;;;10.50;99.90;;;;;;4946224;28;20514;-68
2022/05/29 05:32:05;;;;;;;10.00;5.40;;;10.50;99.90;;;;;;4940891;28;20530;-67
2022/05/29 05:34:53;;;;;;;8.63;4.70;;;10.60;99.90;;;;;;4939909;28;20538;-68
2022/05/29 05:37:42;;;;;;;9.57;5.50;;;10.60;99.90;;;;;;4944091;28;20503;-68
2022/05/29 05:40:32;;;;;;;10.03;4.90;;;10.60;99.90;;;;;;4947041;28;21028;-68
2022/05/29 05:43:20;;;;;;;8.53;4.20;;;10.50;99.90;;;;;;4944404;28;20618;-68
2022/05/29 05:46:09;;;;;;;6.80;4.43;;;10.50;99.90;;;;;;4943610;28;20984;-68
2022/05/29 05:48:59;;;;;;;11.10;4.80;;;10.60;99.90;;;;;;4943811;28;20483;-68
2022/05/29 05:51:48;;;;;;;9.73;5.10;;;10.60;99.90;;;;;;4939644;28;20554;-68
2022/05/29 05:54:36;;;;;;;10.70;4.80;;;10.60;99.90;;;;;;4939680;28;20468;-68
2022/05/29 05:57:24;;;;;;;8.03;4.73;;;10.60;99.90;;;;;;4943656;28;20480;-68
2022/05/29 06:00:15;;;;;;;12.70;5.37;;;10.70;99.90;;;;;;4947002;28;20463;-68
2022/05/29 06:03:04;;;;;;;11.60;4.50;;;10.70;99.90;;;;;;4941804;28;20543;-68
2022/05/29 06:05:53;;;;;;;5.63;4.10;;;10.80;99.90;;;;;;4947592;28;20617;-68
2022/05/29 06:08:41;;;;;;;8.27;4.73;;;10.70;99.90;;;;;;4955888;28;21329;-68
2022/05/29 06:11:30;;;;;;;9.70;4.97;;;10.70;99.90;;;;;;4962866;28;20590;-68
2022/05/29 06:14:18;;;;;;;10.83;4.90;;;10.70;99.90;;;;;;4960228;28;20494;-67
2022/05/29 06:17:07;;;;;;;12.57;4.97;;;10.70;99.90;;;;;;4953697;28;20483;-67
2022/05/29 06:19:55;;;;;;;11.53;5.30;;;10.70;99.90;;;;;;4959964;28;20466;-68
2022/05/29 06:22:44;;;;;;;9.67;4.10;;;10.70;99.90;;;;;;4955976;28;20557;-68
2022/05/29 06:25:32;;;;;;;9.17;4.57;;;10.70;99.90;;;;;;4957839;28;20492;-68
2022/05/29 06:28:21;;;;;;;9.43;4.63;;;10.80;99.90;;;;;;4959062;28;20503;-68
2022/05/29 06:31:12;;;;;;;8.90;4.17;;;10.80;99.90;;;;;;4962115;28;20454;-68
2022/05/29 06:34:00;;;;;;;6.47;4.03;;;10.90;99.90;;;;;;4959024;28;21017;-69
2022/05/29 06:36:48;;;;;;;5.20;4.07;;;10.90;99.90;;;;;;4960028;28;20871;-68
2022/05/29 06:39:39;;;;;;;8.87;3.83;;;11.00;99.90;;;;;;4955376;28;21078;-68
2022/05/29 06:42:27;;;;;;;5.10;3.67;;;11.00;99.90;;;;;;4952132;28;21121;-68
2022/05/29 06:45:15;;;;;;;5.80;3.70;;;11.00;99.90;;;;;;4951112;28;20500;-68
2022/05/29 06:48:03;;;;;;;5.90;3.17;;;11.10;99.90;;;;;;4958757;28;21023;-68
2022/05/29 06:50:52;;;;;;;4.23;3.07;;;11.10;99.90;;;;;;4956207;28;20589;-68
2022/05/29 06:53:41;;;;;;;5.23;3.40;;;11.20;99.90;;;;;;4955757;28;20482;-68
2022/05/29 06:56:31;;;;;;;6.93;3.00;;;11.20;99.90;;;;;;4955763;28;20462;-68
2022/05/29 06:59:20;;;;;;;4.63;3.00;;;11.30;99.90;;;;;;4960110;28;20450;-68
2022/05/29 07:08:21;;;;;;;6.47;3.80;;;11.40;99.90;;;;;;4949153;28;20534;-68
2022/05/29 07:11:13;;;;;;;5.77;3.10;;;11.40;99.90;;;;;;4949337;28;20455;-68
2022/05/29 07:14:04;;;;;;;7.60;3.70;;;11.50;99.90;;;;;;4956284;28;20823;-67
2022/05/29 07:16:52;;;;;;;3.87;3.20;;;11.50;99.90;;;;;;4957638;28;20580;-68
2022/05/29 07:19:42;;;;;;;6.33;3.23;;;11.50;99.90;;;;;;4956726;28;21067;-67
2022/05/29 07:22:32;;;;;;;8.97;3.97;;;11.50;99.90;;;;;;4956143;28;20483;-67
2022/05/29 07:25:20;;;;;;;4.97;3.97;;;11.60;99.90;;;;;;4953691;28;20455;-67
2022/05/29 07:28:09;;;;;;;5.60;3.80;;;11.60;99.90;;;;;;4957309;28;20482;-67
2022/05/29 07:30:58;;;;;;;9.20;3.90;;;11.70;99.90;;;;;;4951548;28;20458;-69
2022/05/29 07:33:47;;;;;;;6.63;3.67;;;11.80;99.90;;;;;;4958173;28;21026;-66
2022/05/29 07:36:35;;;;;;;11.70;4.33;;;11.90;99.90;;;;;;4943830;28;20532;-68
2022/05/29 07:39:24;;;;;;;6.13;4.37;;;11.80;99.90;;;;;;4950566;28;20466;-68
2022/05/29 07:45:18;;;;;;;8.07;4.50;;;11.80;99.90;;;;;;4945113;28;20455;-68
2022/05/29 07:48:08;;;;;;;6.70;4.10;;;11.90;99.90;;;;;;4959509;28;20483;-68
2022/05/29 07:50:57;;;;;;;9.63;4.30;;;11.90;99.90;;;;;;4951977;28;20477;-68
2022/05/29 07:53:46;;;;;;;8.60;4.57;;;11.90;99.90;;;;;;4943483;28;20478;-66
2022/05/29 07:56:34;;;;;;;11.57;4.80;;;12.00;99.90;;;;;;4949489;28;20474;-66
2022/05/29 07:59:22;;;;;;;6.87;4.60;;;12.00;99.90;;;;;;4952865;28;20491;-67
2022/05/29 08:02:10;;;;;;;9.00;4.47;;;12.10;99.90;;;;;;4944634;28;20470;-67
2022/05/29 08:05:03;;;;;;;10.87;4.90;;;12.20;99.90;;;;;;4945994;28;20451;-67
2022/05/29 08:07:53;;;;;;;8.17;4.80;;;12.30;99.90;;;;;;4949379;28;20522;-67
2022/05/29 08:10:43;;;;;;;9.00;5.37;;;12.40;99.90;;;;;;4944721;28;20455;-67
2022/05/29 08:13:32;;;;;;;8.80;4.80;;;12.40;99.90;;;;;;4945592;28;20489;-66
2022/05/29 08:16:20;;;;;;;7.47;4.77;;;12.50;99.90;;;;;;4947539;28;20489;-67
2022/05/29 08:19:09;;;;;;;10.80;5.37;;;12.50;99.90;;;;;;4948599;28;20455;-66
2022/05/29 08:21:59;;;;;;;9.10;5.07;;;12.60;99.90;;;;;;4945898;28;20458;-66
2022/05/29 08:30:59;;;;;;;8.93;5.10;;;12.50;99.90;;;;;;4951100;28;20548;-67
2022/05/29 08:33:47;;;;;;;7.77;4.93;;;12.40;99.90;;;;;;4944694;28;20485;-67
2022/05/29 08:36:37;;;;;;;9.13;5.20;;;12.40;99.90;;;;;;4949480;28;20697;-67
2022/05/29 08:39:27;;;;;;;6.53;5.00;;;12.40;99.90;;;;;;4951512;28;21095;-67
2022/05/29 08:42:18;;;;;;;6.90;4.63;;;12.40;99.90;;;;;;4952917;28;20621;-64
2022/05/29 08:45:12;;;;;;;8.70;5.50;;;12.50;99.90;;;;;;4948711;28;20622;-64
2022/05/29 08:48:01;;;;;;;11.63;4.93;;;12.50;99.90;;;;;;4949607;28;20470;-64
2022/05/29 08:51:00;;;;;;;7.80;5.30;;;12.50;99.90;;;;;;4947037;28;20514;-64
2022/05/29 08:53:54;;;;;;;8.03;5.20;;;12.60;99.90;;;;;;4948159;28;20513;-67
2022/05/29 08:56:52;;;;;;;7.87;4.60;;;12.60;99.90;;;;;;4945779;28;20578;-67
2022/05/29 08:59:49;;;;;;;8.20;4.83;;;12.50;99.90;;;;;;4948001;28;20485;-67
2022/05/29 09:02:47;;;;;;;11.40;4.60;;;12.60;99.90;;;;;;4944082;28;20500;-67
2022/05/29 09:05:38;;;;;;;9.40;4.67;;;12.60;99.90;;;;;;4942562;28;20454;-67
2022/05/29 09:08:31;;;;;;;8.07;5.13;;;12.60;99.90;;;;;;4945997;28;20485;-67
2022/05/29 09:11:25;;;;;;;7.80;4.63;;;12.70;99.90;;;;;;4940608;28;20541;-67
2022/05/29 09:14:22;;;;;;;6.33;5.00;;;12.70;99.90;;;;;;4946190;28;20487;-67
2022/05/29 09:17:15;;;;;;;6.20;4.40;;;12.80;99.90;;;;;;4944889;28;21009;-68
2022/05/29 09:20:09;;;;;;;6.40;4.17;;;12.80;99.90;;;;;;4947716;28;20462;-67
2022/05/29 09:23:00;;;;;;;5.53;4.13;;;12.90;99.90;;;;;;4947176;28;20482;-70
2022/05/29 09:25:48;;;;;;;9.20;4.60;;;12.90;99.90;;;;;;4959828;28;20817;-70
2022/05/29 09:28:38;;;;;;;7.83;4.80;;;13.00;99.90;;;;;;4955608;28;20458;-73
2022/05/29 09:31:28;;;;;;;5.83;3.87;;;13.00;99.90;;;;;;4946787;28;20552;-69
2022/05/29 09:34:17;;;;;;;5.93;4.00;;;13.00;99.90;;;;;;4947198;28;20493;-69
2022/05/29 09:37:11;;;;;;;8.13;3.67;;;13.10;99.90;;;;;;4958192;28;20514;-67
2022/05/29 09:40:10;;;;;;;6.73;4.03;;;13.10;99.90;;;;;;4947631;28;20524;-68
2022/05/29 09:43:13;;;;;;;5.67;3.90;;;13.10;99.90;;;;;;4954240;28;20826;-67
2022/05/29 09:46:20;;;;;;;6.47;4.30;;;13.00;99.90;;;;;;4943154;28;20965;-67
2022/05/29 09:52:30;;;;;;;5.93;3.90;;;12.90;99.90;;;;;;4941068;28;20475;-67
2022/05/29 09:55:25;;;;;;;6.20;4.50;;;12.90;99.90;;;;;;4943895;28;20839;-66
2022/05/29 09:58:22;;;;;;;5.87;4.17;;;12.90;99.90;;;;;;4944474;28;20470;-67
2022/05/29 10:01:11;;;;;;;7.10;4.23;;;12.90;99.90;;;;;;4933079;28;20545;-66
2022/05/29 10:04:02;;;;;;;7.50;4.33;;;12.90;99.90;;;;;;4938444;28;21372;-67
2022/05/29 10:06:57;;;;;;;8.20;4.30;;;12.90;99.90;;;;;;4942578;28;20486;-66
2022/05/29 10:09:57;;;;;;;7.47;4.23;;;13.00;99.90;;;;;;4941967;28;20483;-66
2022/05/29 10:12:48;;;;;;;8.20;4.40;;;13.10;99.90;;;;;;4935103;28;20474;-66
2022/05/29 10:15:39;;;;;;;5.33;4.27;;;13.10;99.90;;;;;;4940737;28;22630;-66
2022/05/29 10:18:36;;;;;;;8.47;3.90;;;13.20;99.90;;;;;;4946992;28;20447;-66
2022/05/29 10:21:27;;;;;;;6.33;3.80;;;13.20;99.90;;;;;;4942170;28;20467;-67
2022/05/29 10:24:24;;;;;;;11.53;4.20;;;13.30;99.90;;;;;;4938250;28;20890;-66
2022/05/29 10:27:23;;;;;;;6.77;4.17;;;13.30;99.90;;;;;;4948402;28;20613;-66
2022/05/29 10:30:27;;;;;;;6.77;3.97;;;13.40;99.90;;;;;;4945228;28;20482;-66
2022/05/29 10:33:22;;;;;;;6.87;4.27;;;13.60;99.90;;;;;;4943657;28;20490;-66
2022/05/29 10:36:16;;;;;;;11.73;7.03;;;13.80;99.90;;;;;;4946282;28;20470;-66
2022/05/29 10:39:09;;;;;;;36.23;28.13;;;14.00;99.90;;;;;;4951527;28;20474;-66
2022/05/29 10:41:59;;;;;;;42.90;38.50;;;14.20;99.90;;;;;;4948853;28;21097;-68
2022/05/29 10:44:49;;;;;;;110.27;101.83;;;14.40;99.90;;;;;;4952754;28;20981;-68
2022/05/29 10:47:43;;;;;;;26.43;23.23;;;14.60;99.90;;;;;;4943427;28;21077;-67
2022/05/29 10:50:45;;;;;;;13.43;12.07;;;14.60;99.90;;;;;;4947632;28;20572;-68
2022/05/29 10:53:46;;;;;;;9.83;7.83;;;14.70;99.90;;;;;;4947371;28;20514;-67
2022/05/29 10:56:45;;;;;;;45.90;42.73;;;14.70;99.90;;;;;;4945193;28;20474;-67
2022/05/29 11:00:06;;;;;;;131.27;117.73;;;14.80;99.90;;;;;;4947867;28;20542;-67
2022/05/29 11:03:23;;;;;;;7.90;7.10;;;14.80;99.90;;;;;;4937590;28;20576;-68
2022/05/29 11:06:38;;;;;;;4.80;2.90;;;15.00;99.90;;;;;;4941015;28;20479;-67
2022/05/29 11:09:40;;;;;;;6.77;2.87;;;15.00;99.90;;;;;;4946064;28;20611;-68
2022/05/29 11:12:38;;;;;;;4.17;2.23;;;15.00;99.90;;;;;;4942478;28;21027;-67
2022/05/29 11:15:35;;;;;;;4.67;2.50;;;15.00;99.90;;;;;;4942608;28;20458;-68
2022/05/29 11:18:45;;;;;;;6.67;2.70;;;15.00;99.90;;;;;;4940674;28;21000;-68
2022/05/29 11:21:48;;;;;;;4.03;2.80;;;14.80;99.90;;;;;;4956260;28;20490;-68
2022/05/29 11:24:57;;;;;;;4.70;2.90;;;14.70;99.90;;;;;;4952893;28;20522;-67
2022/05/29 11:28:08;;;;;;;4.37;3.37;;;14.60;99.90;;;;;;4955442;28;20926;-67
2022/05/29 11:31:21;;;;;;;5.50;3.50;;;14.50;99.90;;;;;;4945550;28;20581;-68
2022/05/29 11:34:25;;;;;;;5.10;2.90;;;14.40;99.90;;;;;;4952515;28;20477;-67
2022/05/29 11:37:37;;;;;;;4.30;2.43;;;14.30;99.90;;;;;;4950860;28;20562;-68
2022/05/29 11:40:30;;;;;;;4.10;2.50;;;14.30;99.90;;;;;;4951085;28;20459;-67
2022/05/29 11:43:25;;;;;;;5.80;2.93;;;14.20;99.90;;;;;;4956467;28;20481;-67
2022/05/29 11:52:49;;;;;;;5.20;3.20;;;14.10;99.90;;;;;;4953018;28;20613;-67
2022/05/29 11:55:42;;;;;;;6.40;2.83;;;14.00;99.90;;;;;;4949640;28;20456;-67
2022/05/29 11:58:35;;;;;;;4.40;2.70;;;14.00;99.90;;;;;;4954861;28;20449;-66
2022/05/29 12:01:27;;;;;;;4.20;3.07;;;14.00;99.90;;;;;;4953434;28;20550;-66
2022/05/29 12:04:25;;;;;;;7.10;2.73;;;14.00;99.90;;;;;;4953953;28;20506;-66
2022/05/29 12:07:16;;;;;;;6.10;2.80;;;14.00;99.90;;;;;;4954011;28;20478;-67
2022/05/29 12:10:11;;;;;;;3.83;2.60;;;13.90;99.90;;;;;;4946958;28;20462;-66
2022/05/29 12:13:03;;;;;;;5.13;2.73;;;14.00;99.90;;;;;;4952177;28;21154;-67
2022/05/29 12:16:00;;;;;;;6.93;3.07;;;14.00;99.90;;;;;;4951014;28;20466;-67
2022/05/29 12:18:53;;;;;;;6.83;2.47;;;14.00;99.90;;;;;;4956218;28;20542;-67
2022/05/29 12:21:47;;;;;;;5.50;2.90;;;13.90;99.90;;;;;;4957016;28;20894;-67
2022/05/29 12:24:38;;;;;;;7.70;3.40;;;14.00;99.90;;;;;;4947763;28;20466;-67
2022/05/29 12:27:29;;;;;;;5.23;2.20;;;13.90;99.90;;;;;;4955732;28;20473;-67
2022/05/29 12:30:25;;;;;;;4.17;2.60;;;14.00;99.90;;;;;;4955826;28;20513;-67
2022/05/29 12:33:16;;;;;;;6.90;3.23;;;14.00;99.90;;;;;;4953266;28;20550;-67
2022/05/29 12:36:14;;;;;;;4.90;3.50;;;14.00;99.90;;;;;;4952938;28;20477;-66
2022/05/29 12:39:08;;;;;;;5.17;2.70;;;14.00;99.90;;;;;;4951634;28;20917;-67
2022/05/29 12:42:33;;;;;;;8.93;2.67;;;14.10;99.90;;;;;;4946111;28;20470;-67
2022/05/29 12:45:54;;;;;;;9.73;2.80;;;14.00;99.90;;;;;;4953532;28;20510;-67
2022/05/29 12:49:23;;;;;;;3.70;2.40;;;13.90;99.90;;;;;;4922083;28;20545;-66
2022/05/29 12:52:18;;;;;;;3.23;2.33;;;14.00;99.90;;;;;;4929728;28;20490;-67
2022/05/29 12:55:43;;;;;;;3.50;2.33;;;13.90;99.90;;;;;;4958325;28;20462;-67
2022/05/29 12:58:55;;;;;;;4.47;2.63;;;13.90;99.90;;;;;;4938825;28;21072;-67
2022/05/29 13:01:56;;;;;;;5.23;2.80;;;13.90;99.90;;;;;;4950378;28;20450;-67
2022/05/29 13:05:08;;;;;;;4.27;3.00;;;13.90;99.90;;;;;;4959504;28;20454;-67
2022/05/29 13:08:18;;;;;;;6.67;3.30;;;13.90;99.90;;;;;;4960433;28;20581;-67
2022/05/29 13:11:08;;;;;;;6.33;2.70;;;13.90;99.90;;;;;;4955450;28;20477;-67
2022/05/29 13:14:00;;;;;;;7.57;3.00;;;13.90;99.90;;;;;;4949282;28;20486;-66
2022/05/29 13:17:03;;;;;;;3.33;2.40;;;13.90;99.90;;;;;;4958864;28;20477;-68
2022/05/29 13:19:58;;;;;;;5.30;3.00;;;13.90;99.90;;;;;;4957453;28;20553;-67
2022/05/29 13:22:49;;;;;;;5.03;2.30;;;14.00;99.90;;;;;;4957725;28;20482;-66
2022/05/29 13:26:13;;;;;;;4.37;2.53;;;14.10;99.90;;;;;;4958000;28;20482;-66
2022/05/29 13:29:04;;;;;;;4.10;2.40;;;14.10;99.90;;;;;;4956610;28;20462;-66
2022/05/29 13:32:18;;;;;;;3.40;2.50;;;14.10;99.90;;;;;;4950375;28;20503;-66
2022/05/29 13:35:37;;;;;;;5.90;2.53;;;14.00;99.90;;;;;;4938745;28;20470;-67
2022/05/29 13:38:56;;;;;;;4.03;2.37;;;14.00;99.90;;;;;;4938328;28;20529;-67
2022/05/29 13:42:04;;;;;;;3.10;2.40;;;14.00;99.90;;;;;;4944135;28;20458;-67
2022/05/29 13:44:53;;;;;;;3.53;2.70;;;14.00;99.90;;;;;;4948701;28;20485;-67
2022/05/29 13:47:47;;;;;;;2.60;2.20;;;14.00;99.90;;;;;;4959302;28;21025;-67
2022/05/29 13:50:50;;;;;;;2.80;2.13;;;14.10;99.90;;;;;;4952938;28;21608;-67
2022/05/29 13:53:49;;;;;;;3.47;2.20;;;14.10;99.90;;;;;;4949965;28;20485;-68
2022/05/29 13:56:54;;;;;;;6.10;2.40;;;14.10;99.90;;;;;;4949507;28;21005;-66
2022/05/29 14:06:18;;;;;;;2.43;2.03;;;14.30;99.90;;;;;;4954584;28;20558;-68
2022/05/29 14:09:08;;;;;;;6.40;2.07;;;14.30;99.90;;;;;;4954761;28;20553;-68
2022/05/29 14:11:59;;;;;;;5.97;1.83;;;14.30;99.90;;;;;;4949709;28;20557;-68
2022/05/29 14:14:51;;;;;;;3.40;2.43;;;14.30;99.90;;;;;;4947680;28;20538;-67
2022/05/29 14:17:43;;;;;;;4.10;2.00;;;14.30;99.90;;;;;;4947041;28;20481;-67
2022/05/29 14:20:41;;;;;;;5.40;2.60;;;14.40;99.90;;;;;;4954390;28;20642;-67
2022/05/29 14:23:44;;;;;;;8.20;2.43;;;14.50;99.90;;;;;;4943236;28;20482;-68
2022/05/29 14:27:02;;;;;;;7.20;2.57;;;14.50;99.90;;;;;;4942108;28;20544;-67
2022/05/29 14:30:27;;;;;;;3.43;2.17;;;14.60;99.90;;;;;;4940397;28;20470;-68
2022/05/29 14:33:30;;;;;;;3.50;2.20;;;14.60;99.90;;;;;;4935425;28;20533;-67
2022/05/29 14:36:31;;;;;;;4.07;2.30;;;14.70;99.90;;;;;;4948498;28;20479;-67
2022/05/29 14:39:33;;;;;;;5.50;2.30;;;14.70;99.90;;;;;;4954140;28;20501;-67
2022/05/29 14:42:26;;;;;;;5.07;2.63;;;14.70;99.90;;;;;;4947955;28;20486;-68
2022/05/29 14:45:21;;;;;;;3.73;2.30;;;14.60;99.90;;;;;;4954221;28;20455;-68
2022/05/29 14:48:14;;;;;;;3.40;2.47;;;14.60;99.90;;;;;;4952849;28;20845;-67
2022/05/29 14:51:07;;;;;;;6.25;2.40;;;14.60;99.90;;;;;;4952936;28;20819;-68
2022/05/29 14:54:00;;;;;;;9.93;3.23;;;14.60;99.90;;;;;;4944785;28;20973;-67
2022/05/29 14:56:58;;;;;;;4.57;2.60;;;14.60;99.90;;;;;;4950784;28;21023;-67
2022/05/29 14:59:46;;;;;;;5.83;2.97;;;14.60;99.90;;;;;;4955281;28;20538;-68
2022/05/29 15:02:38;;;;;;;5.17;2.70;;;14.50;99.90;;;;;;4945551;28;20485;-68
2022/05/29 15:05:28;;;;;;;6.33;3.10;;;14.50;99.90;;;;;;4942598;28;20454;-69
2022/05/29 15:11:24;;;;;;;4.93;3.27;;;14.40;99.90;;;;;;4949999;28;20455;-68
2022/05/29 15:14:21;;;;;;;3.73;2.87;;;14.40;99.90;;;;;;4956085;28;20483;-67
2022/05/29 15:17:10;;;;;;;7.20;2.80;;;14.40;99.90;;;;;;4942065;28;20572;-67
2022/05/29 15:26:26;;;;;;;4.20;2.37;;;14.40;99.90;;;;;;4949866;28;20505;-69
2022/05/29 15:29:18;;;;;;;4.47;2.50;;;14.20;99.90;;;;;;4947731;28;20454;-69
2022/05/29 15:32:13;;;;;;;4.60;2.57;;;14.20;99.90;;;;;;4944428;28;20587;-69
2022/05/29 15:35:20;;;;;;;4.40;2.50;;;14.30;99.90;;;;;;4955080;28;20504;-69
2022/05/29 15:38:15;;;;;;;3.60;2.87;;;14.20;99.90;;;;;;4950275;28;20521;-69
2022/05/29 15:41:11;;;;;;;5.23;2.50;;;14.10;99.90;;;;;;4949263;28;20453;-67
2022/05/29 15:44:10;;;;;;;3.60;2.50;;;14.00;99.90;;;;;;4940504;28;20486;-68
2022/05/29 15:47:16;;;;;;;4.53;2.73;;;13.80;99.90;;;;;;4947266;28;20982;-68
2022/05/29 15:50:22;;;;;;;4.27;2.47;;;13.80;99.90;;;;;;4951358;28;20470;-68
2022/05/29 15:53:43;;;;;;;4.93;2.60;;;13.80;99.90;;;;;;4952029;28;20936;-68
2022/05/29 15:56:46;;;;;;;3.90;2.93;;;13.70;99.90;;;;;;4954999;28;20571;-68
2022/05/29 15:59:47;;;;;;;5.03;2.70;;;13.60;99.90;;;;;;4951690;28;20458;-68
2022/05/29 16:02:58;;;;;;;4.10;2.87;;;13.70;99.90;;;;;;4954181;28;20596;-68
2022/05/29 16:06:08;;;;;;;6.30;3.03;;;13.70;99.90;;;;;;4955624;28;20556;-68
2022/05/29 16:09:06;;;;;;;9.63;3.90;;;13.70;99.90;;;;;;4945620;28;21009;-68
2022/05/29 16:12:01;;;;;;;5.30;2.90;;;13.60;99.90;;;;;;4958148;28;20559;-68